Беслан

Карта отелей и гостиниц, располагающихся рядом с аэропортом Беслан :

Беслан
Владикавказ
Северная Осетия - Алания 43° 12' 18.6516" N, 44° 36' 24.2784" E
Код аэродрома ИКАО: 
URMO
Код аэродрома RU: 
УРМО
Координаты: 
N43.20518° E044.60674°
Превышение над уровнем моря : 
510
Основная полоса: 
09/27
Курс магнитный: 
094,5/274,5
Длина основной ВПП: 
3004
Ширина основной ВПП: 
45
Покрытие основной ВПП: 
Твёрдое (бетон)
Тип: 
Аэродром
Освещение ВПП: 
Постоянное
Класс аэродрома: 
Международный
Статус: 
Действующий
Принадлежность: 
ГА
Сайт: 
www.mav.aero
E-mail аэродрома: 
info@mav.aero
Страна: 
Россия
Регион: 
Северная Осетия - Алания
Город: 
Владикавказ
Дополнительная информация: 
Горный. Оператор: ОАО "Международный аэропорт Владикавказ" (ОАО "МАВ"). Нкр.=(800)м. Грузонапряженность до 195 тонн.
Схемы аэропортов: 
Погода: 

Авиационная погода во Владикавказе

Регион: 
Погода METAR: 
URMO 110330Z AUTO 09005MPS 9999 // ///093/// 19/18 Q1012 RMK QFE715/0954
Время наблюдения: 
2020-08-11T03:30:00Z
Температура C: 
19.0
Точка росы: 
18.0
Направление ветра: 
90
Скорость ветра: 
10
Метеорологическая видимость: 
6.21
Аэропорт подробнее: 

Найти трансфер

С помощью этой формы Вы можете найти трансфер из аэропорта Беслан в город, аэропорт или вокзал:

Карта места

Javascript is required to view this map.

Погода в аэропортах:

Авиационная погода в Москве - Остафьево

Регион: 
Погода METAR: 
UUMO 110330Z 31003MPS 9000 -SHRA BKN033CB 17/17 Q1013 R26/090060 NOSIG RMK QFE744/0992
Время наблюдения: 
2020-08-11T03:30:00Z
Температура C: 
17.0
Точка росы: 
17.0
Направление ветра: 
310
Скорость ветра: 
6
Метеорологическая видимость: 
5.59
Явления погоды: 
-SHRA
Условия полета: 
VFR
Аэропорт подробнее: 

Авиационная погода в Нижнем Новгороде

Регион: 
Погода METAR: 
UWGG 110330Z 23002MPS 9999 -RA BKN030 14/12 Q1012 R18L/090070 NOSIG
Время наблюдения: 
2020-08-11T03:30:00Z
Температура C: 
14.0
Точка росы: 
12.0
Направление ветра: 
230
Скорость ветра: 
4
Метеорологическая видимость: 
6.21
Явления погоды: 
-RA
Условия полета: 
MVFR

Авиационная погода в аэропорту Семей

Регион: 
Погода METAR: 
UASS 110325Z 32002MPS 270V030 9999 -SHRA BKN043CB 24/14 Q1000 R08/0///60 NOSIG RMK QFE730/0973
Время наблюдения: 
2020-08-11T03:25:00Z
Температура C: 
24.0
Точка росы: 
14.0
Направление ветра: 
320
Скорость ветра: 
4
Метеорологическая видимость: 
6.21
Явления погоды: 
-SHRA
Условия полета: 
VFR
Аэропорт подробнее: 

Авиационная погода в Грозном

Регион: 
Погода METAR: 
URMG 110330Z 26003MPS 210V010 9999 -SHRA BKN046CB OVC/// 20/18 Q1011 R08/090070 NOSIG RMK QFE744/0992
Время наблюдения: 
2020-08-11T03:30:00Z
Температура C: 
20.0
Точка росы: 
18.0
Направление ветра: 
260
Скорость ветра: 
6
Метеорологическая видимость: 
6.21
Явления погоды: 
-SHRA
Условия полета: 
VFR
Аэропорт подробнее: